createdAt,value
2022-12-25T00:00:50.943Z,100861.91
2022-12-25T00:03:57.148Z,100862.81
2022-12-25T00:07:00.122Z,100865.13
2022-12-25T00:10:02.849Z,100865.44
2022-12-25T00:13:07.025Z,100867.28
2022-12-25T00:16:13.790Z,100863.53
2022-12-25T00:19:20.360Z,100871.06
2022-12-25T00:22:23.257Z,100869.47
2022-12-25T00:25:26.109Z,100873.84
2022-12-25T00:28:29.269Z,100865.38
2022-12-25T00:31:32.122Z,100857.34
2022-12-25T00:34:35.087Z,100877.09
2022-12-25T00:37:37.880Z,100872.38
2022-12-25T00:40:44.510Z,100866.12
2022-12-25T00:43:50.368Z,100870.66
2022-12-25T00:46:53.223Z,100862.44
2022-12-25T00:49:56.083Z,100863.41
2022-12-25T00:52:58.820Z,100870.41
2022-12-25T00:56:04.259Z,100873.78
2022-12-25T00:59:06.984Z,100876.16
2022-12-25T01:02:24.902Z,100866.91
2022-12-25T01:05:28.023Z,100876.50
2022-12-25T01:08:33.509Z,100884.34
2022-12-25T01:11:36.658Z,100892.66
2022-12-25T01:14:42.369Z,100889.38
2022-12-25T01:17:45.372Z,100892.50
2022-12-25T01:20:54.160Z,100896.78
2022-12-25T01:23:57.150Z,100904.75
2022-12-25T01:27:06.223Z,100901.59
2022-12-25T01:30:09.636Z,100910.81
2022-12-25T01:33:12.627Z,100918.84
2022-12-25T01:36:26.511Z,100913.47
2022-12-25T01:39:32.512Z,100909.97
2022-12-25T01:42:36.452Z,100909.72
2022-12-25T01:45:45.439Z,100904.66
2022-12-25T01:48:48.697Z,100898.28
2022-12-25T01:51:56.176Z,100904.47
2022-12-25T01:55:04.206Z,100904.22
2022-12-25T01:58:07.235Z,100898.66
2022-12-25T02:01:10.154Z,100908.88
2022-12-25T02:04:18.618Z,100899.62
2022-12-25T02:07:24.782Z,100906.41
2022-12-25T02:10:27.660Z,100906.31
2022-12-25T02:13:30.676Z,100905.34
2022-12-25T02:16:57.304Z,100897.63
2022-12-25T02:20:23.133Z,100921.06
2022-12-25T02:23:42.483Z,100928.63
2022-12-25T02:26:56.633Z,100924.84
2022-12-25T02:30:09.422Z,100928.44
2022-12-25T02:33:38.307Z,100930.88
2022-12-25T02:36:54.788Z,100937.56
2022-12-25T02:40:16.243Z,100938.47
2022-12-25T02:44:06.964Z,100936.69
2022-12-25T02:47:29.948Z,100946.31
2022-12-25T02:50:51.219Z,100941.84
2022-12-25T02:54:14.632Z,100940.81
2022-12-25T02:57:41.418Z,100939.88
2022-12-25T03:01:06.060Z,100941.41
2022-12-25T03:04:31.166Z,100947.91
2022-12-25T03:07:37.503Z,100947.25
2022-12-25T03:11:05.236Z,100947.00
2022-12-25T03:14:28.249Z,100942.84
2022-12-25T03:17:32.656Z,100949.81
2022-12-25T03:20:56.420Z,100947.72
2022-12-25T03:24:21.112Z,100954.88
2022-12-25T03:27:24.090Z,100949.19
2022-12-25T03:30:56.384Z,100951.94
2022-12-25T03:34:34.476Z,100950.53
2022-12-25T03:37:45.643Z,100950.94
2022-12-25T03:41:18.315Z,100951.41
2022-12-25T03:44:55.851Z,100953.41
2022-12-25T03:48:13.620Z,100954.16
2022-12-25T03:51:38.447Z,100951.69
2022-12-25T03:55:00.573Z,100953.97
2022-12-25T03:58:24.829Z,100952.81
2022-12-25T04:01:46.376Z,100939.06
2022-12-25T04:05:11.198Z,100955.94
2022-12-25T04:08:35.587Z,100949.88
2022-12-25T04:12:02.270Z,100945.75
2022-12-25T04:15:27.172Z,100956.22
2022-12-25T04:18:48.360Z,100955.97
2022-12-25T04:22:09.510Z,100962.28
2022-12-25T04:25:30.691Z,100951.13
2022-12-25T04:28:52.444Z,100956.47
2022-12-25T04:32:13.570Z,100931.13
2022-12-25T04:35:42.404Z,100965.91
2022-12-25T04:38:47.973Z,100960.94
2022-12-25T04:41:51.054Z,100947.25
2022-12-25T04:44:53.916Z,100932.19
2022-12-25T04:48:00.050Z,100951.69
2022-12-25T04:51:16.455Z,100950.28
2022-12-25T04:54:22.577Z,100943.50
2022-12-25T04:57:28.305Z,100940.91
2022-12-25T05:00:34.494Z,100944.72
2022-12-25T05:03:37.919Z,100947.81
2022-12-25T05:06:40.759Z,100927.53
2022-12-25T05:09:43.523Z,100944.28
2022-12-25T05:12:46.244Z,100948.69
2022-12-25T05:15:49.015Z,100951.66
2022-12-25T05:18:52.684Z,100955.69
2022-12-25T05:21:57.922Z,100952.13
2022-12-25T05:25:00.637Z,100952.94
2022-12-25T05:28:03.470Z,100959.97
2022-12-25T05:31:06.851Z,100956.88
2022-12-25T05:34:09.560Z,100956.63
2022-12-25T05:37:12.427Z,100964.19
2022-12-25T05:40:15.318Z,100957.41
2022-12-25T05:43:19.771Z,100957.53
2022-12-25T05:46:23.944Z,100950.66
2022-12-25T05:49:26.926Z,100953.13
2022-12-25T05:52:33.841Z,100966.28
2022-12-25T05:55:38.052Z,100963.81
2022-12-25T05:58:41.853Z,100954.88
2022-12-25T06:01:44.919Z,100959.37
2022-12-25T06:04:47.963Z,100958.31
2022-12-25T06:07:50.894Z,100958.94
2022-12-25T06:10:53.731Z,100953.97
2022-12-25T06:13:56.722Z,100960.19
2022-12-25T06:16:59.716Z,100972.59
2022-12-25T06:20:02.924Z,100974.69
2022-12-25T06:23:05.857Z,100972.94
2022-12-25T06:26:11.759Z,100978.78
2022-12-25T06:29:14.800Z,100975.78
2022-12-25T06:32:18.711Z,100977.66
2022-12-25T06:35:24.780Z,100984.44
2022-12-25T06:38:30.825Z,100979.44
2022-12-25T06:41:33.876Z,100997.47
2022-12-25T06:44:36.695Z,100991.19
2022-12-25T06:47:39.595Z,101004.13
2022-12-25T06:50:45.527Z,101013.53
2022-12-25T06:53:49.025Z,101006.72
2022-12-25T06:56:51.855Z,101011.84
2022-12-25T06:59:55.635Z,101021.13
2022-12-25T07:02:59.382Z,101033.56
2022-12-25T07:06:02.676Z,101029.28
2022-12-25T07:09:05.669Z,101038.16
2022-12-25T07:12:19.352Z,101034.94
2022-12-25T07:15:22.349Z,101047.75
2022-12-25T07:18:26.041Z,101039.12
2022-12-25T07:21:28.936Z,101047.37
2022-12-25T07:24:31.839Z,101055.69
2022-12-25T07:27:34.805Z,101059.53
2022-12-25T07:30:38.218Z,101064.00
2022-12-25T07:33:41.683Z,101066.50
2022-12-25T07:36:44.630Z,101082.09
2022-12-25T07:39:47.517Z,101082.47
2022-12-25T07:42:50.369Z,101076.88
2022-12-25T07:46:00.628Z,101072.22
2022-12-25T07:49:03.682Z,101079.91
2022-12-25T07:52:06.646Z,101081.78
2022-12-25T07:55:10.165Z,101088.63
2022-12-25T07:58:15.141Z,101085.66
2022-12-25T08:01:27.370Z,101086.97
2022-12-25T08:04:30.625Z,101093.00
2022-12-25T08:07:33.903Z,101099.00
2022-12-25T08:10:37.662Z,101104.75
2022-12-25T08:13:43.414Z,101104.59
2022-12-25T08:16:47.248Z,101101.44
2022-12-25T08:19:50.333Z,101101.72
2022-12-25T08:22:53.199Z,101107.25
2022-12-25T08:26:04.589Z,101101.25
2022-12-25T08:29:08.124Z,101099.31
2022-12-25T08:32:11.163Z,101090.81
2022-12-25T08:35:14.008Z,101090.53
2022-12-25T08:38:16.840Z,101098.25
2022-12-25T08:41:19.705Z,101089.03
2022-12-25T08:44:22.608Z,101099.22
2022-12-25T08:47:25.440Z,101105.00
2022-12-25T08:50:28.351Z,101111.31
2022-12-25T08:53:31.124Z,101116.06
2022-12-25T08:56:34.044Z,101126.03
2022-12-25T08:59:36.861Z,101127.28
2022-12-25T09:02:40.392Z,101111.97
2022-12-25T09:05:43.296Z,101107.72
2022-12-25T09:08:49.544Z,101117.97
2022-12-25T09:11:52.678Z,101113.47
2022-12-25T09:14:55.505Z,101103.28
2022-12-25T09:17:58.312Z,101096.78
2022-12-25T09:21:05.783Z,101102.44
2022-12-25T09:24:08.985Z,101105.91
2022-12-25T09:27:11.922Z,101106.34
2022-12-25T09:30:14.861Z,101110.38
2022-12-25T09:33:18.285Z,101110.25
2022-12-25T09:36:23.611Z,101107.19
2022-12-25T09:39:26.630Z,101111.34
2022-12-25T09:42:37.640Z,101103.31
2022-12-25T09:45:40.658Z,101099.81
2022-12-25T09:48:48.921Z,101088.44
2022-12-25T09:52:00.186Z,101082.88
2022-12-25T09:55:19.592Z,101085.44
2022-12-25T09:58:25.668Z,101083.00
2022-12-25T10:01:41.861Z,101090.56
2022-12-25T10:05:09.050Z,101099.19
2022-12-25T10:08:35.271Z,101095.88
2022-12-25T10:11:40.898Z,101103.00
2022-12-25T10:15:08.769Z,101094.16
2022-12-25T10:18:37.567Z,101094.22
2022-12-25T10:21:41.788Z,101067.22
2022-12-25T10:24:49.771Z,101097.06
2022-12-25T10:28:05.256Z,101089.28
2022-12-25T10:31:23.823Z,101077.72
2022-12-25T10:34:29.119Z,101082.69
2022-12-25T10:37:32.071Z,101079.84
2022-12-25T10:40:52.471Z,101068.13
2022-12-25T10:43:57.287Z,101076.63
2022-12-25T10:47:06.362Z,101078.25
2022-12-25T10:50:19.623Z,101073.47
2022-12-25T10:53:25.564Z,101069.75
2022-12-25T10:56:28.572Z,101072.31
2022-12-25T10:59:36.647Z,101060.78
2022-12-25T11:02:41.145Z,101051.59
2022-12-25T11:05:50.778Z,101039.16
2022-12-25T11:08:56.175Z,101047.69
2022-12-25T11:12:05.425Z,101044.66
2022-12-25T11:15:34.462Z,101043.63
2022-12-25T11:18:52.187Z,101039.75
2022-12-25T11:21:57.851Z,101048.41
2022-12-25T11:25:13.136Z,101047.34
2022-12-25T11:28:16.061Z,101046.25
2022-12-25T11:31:21.892Z,101045.91
2022-12-25T11:34:24.794Z,101042.28
2022-12-25T11:37:44.216Z,101031.62
2022-12-25T11:40:53.039Z,101027.88
2022-12-25T11:43:59.655Z,101018.34
2022-12-25T11:47:13.509Z,101015.44
2022-12-25T11:50:44.237Z,101015.50
2022-12-25T11:53:56.800Z,101014.50
2022-12-25T11:57:01.223Z,101015.63
2022-12-25T12:00:09.445Z,101009.28
2022-12-25T12:03:28.895Z,101006.81
2022-12-25T12:06:45.655Z,101005.16
2022-12-25T12:10:06.800Z,100997.75
2022-12-25T12:13:38.409Z,100989.34
2022-12-25T12:16:41.541Z,100987.66
2022-12-25T12:19:44.822Z,100984.72
2022-12-25T12:22:51.586Z,100977.34
2022-12-25T12:25:54.751Z,100972.34
2022-12-25T12:29:03.504Z,100975.53
2022-12-25T12:32:15.055Z,100978.03
2022-12-25T12:35:21.168Z,100974.00
2022-12-25T12:38:24.971Z,100979.59
2022-12-25T12:41:43.925Z,100977.69
2022-12-25T12:44:46.910Z,100981.03
2022-12-25T12:47:59.934Z,100979.31
2022-12-25T12:51:40.259Z,100973.19
2022-12-25T12:55:13.394Z,100973.34
2022-12-25T12:58:35.022Z,100974.75
2022-12-25T13:02:32.174Z,100974.88
2022-12-25T13:05:42.741Z,100985.00
2022-12-25T13:08:56.103Z,100982.91
2022-12-25T13:12:09.521Z,100980.72
2022-12-25T13:15:18.815Z,100973.56
2022-12-25T13:18:24.959Z,100967.69
2022-12-25T13:21:37.487Z,100973.19
2022-12-25T13:24:55.967Z,100943.19
2022-12-25T13:27:59.822Z,100963.38
2022-12-25T13:31:18.181Z,100973.06
2022-12-25T13:34:39.259Z,100972.75
2022-12-25T13:37:43.684Z,100959.03
2022-12-25T13:41:12.909Z,100971.59
2022-12-25T13:44:27.292Z,100958.22
2022-12-25T13:47:37.250Z,100960.66
2022-12-25T13:50:48.685Z,100959.50
2022-12-25T13:53:51.898Z,100955.72
2022-12-25T13:56:58.644Z,100949.94
2022-12-25T14:00:02.217Z,100931.59
2022-12-25T14:03:08.996Z,100941.81
2022-12-25T14:06:25.890Z,100941.81
2022-12-25T14:09:28.942Z,100945.63
2022-12-25T14:12:32.039Z,100939.63
2022-12-25T14:15:36.681Z,100925.78
2022-12-25T14:18:51.007Z,100933.34
2022-12-25T14:21:58.391Z,100933.19
2022-12-25T14:25:01.729Z,100940.59
2022-12-25T14:28:09.022Z,100944.22
2022-12-25T14:31:12.223Z,100929.66
2022-12-25T14:34:23.485Z,100933.94
2022-12-25T14:37:31.447Z,100947.19
2022-12-25T14:40:36.415Z,100946.47
2022-12-25T14:43:40.712Z,100936.66
2022-12-25T14:46:48.798Z,100942.84
2022-12-25T14:49:54.785Z,100937.81
2022-12-25T14:52:59.375Z,100938.53
2022-12-25T14:56:05.148Z,100926.84
2022-12-25T14:59:17.973Z,100933.56
2022-12-25T15:02:20.896Z,100942.47
2022-12-25T15:05:35.821Z,100946.69
2022-12-25T15:08:38.615Z,100952.91
2022-12-25T15:11:41.626Z,100949.81
2022-12-25T15:14:46.772Z,100950.03
2022-12-25T15:17:50.349Z,100952.59
2022-12-25T15:20:53.549Z,100953.03
2022-12-25T15:23:58.683Z,100953.22
2022-12-25T15:27:01.787Z,100950.28
2022-12-25T15:30:13.465Z,100943.91
2022-12-25T15:33:17.978Z,100946.16
2022-12-25T15:36:21.173Z,100946.19
2022-12-25T15:39:24.110Z,100950.25
2022-12-25T15:42:27.588Z,100957.03
2022-12-25T15:45:31.263Z,100948.59
2022-12-25T15:48:34.006Z,100951.22
2022-12-25T15:51:36.926Z,100946.66
2022-12-25T15:54:39.942Z,100941.44
2022-12-25T15:57:44.626Z,100941.16
2022-12-25T16:00:47.456Z,100934.12
2022-12-25T16:03:50.259Z,100923.03
2022-12-25T16:06:53.460Z,100929.94
2022-12-25T16:09:56.269Z,100934.78
2022-12-25T16:12:59.054Z,100932.84
2022-12-25T16:16:03.123Z,100930.78
2022-12-25T16:19:06.583Z,100927.47
2022-12-25T16:22:21.863Z,100932.72
2022-12-25T16:25:25.257Z,100929.47
2022-12-25T16:28:28.414Z,100931.81
2022-12-25T16:31:31.371Z,100927.12
2022-12-25T16:34:34.250Z,100929.66
2022-12-25T16:37:37.031Z,100919.72
2022-12-25T16:40:40.133Z,100917.81
2022-12-25T16:43:43.814Z,100920.59
2022-12-25T16:46:47.837Z,100910.78
2022-12-25T16:49:50.647Z,100901.50
2022-12-25T16:52:53.483Z,100914.50
2022-12-25T16:56:08.499Z,100919.47
2022-12-25T16:59:22.677Z,100921.41
2022-12-25T17:02:25.743Z,100913.53
2022-12-25T17:05:33.155Z,100917.53
2022-12-25T17:08:37.781Z,100892.13
2022-12-25T17:11:40.847Z,100899.28
2022-12-25T17:14:43.673Z,100915.44
2022-12-25T17:17:46.534Z,100911.97
2022-12-25T17:20:50.828Z,100902.97
2022-12-25T17:24:01.250Z,100902.53
2022-12-25T17:27:08.940Z,100897.72
2022-12-25T17:30:12.054Z,100892.19
2022-12-25T17:33:14.879Z,100894.44
2022-12-25T17:36:19.985Z,100897.19
2022-12-25T17:39:23.170Z,100891.25
2022-12-25T17:42:26.030Z,100889.47
2022-12-25T17:45:28.943Z,100886.56
2022-12-25T17:48:31.784Z,100882.72
2022-12-25T17:51:34.547Z,100885.91
2022-12-25T17:54:40.811Z,100874.44
2022-12-25T17:57:44.086Z,100859.09
2022-12-25T18:00:47.531Z,100863.94
2022-12-25T18:03:52.767Z,100871.53
2022-12-25T18:06:58.538Z,100860.06
2022-12-25T18:10:03.101Z,100873.75
2022-12-25T18:13:11.371Z,100885.22
2022-12-25T18:16:14.959Z,100881.75
2022-12-25T18:19:18.692Z,100885.72
2022-12-25T18:22:22.416Z,100868.59
2022-12-25T18:25:25.355Z,100880.19
2022-12-25T18:28:28.519Z,100883.75
2022-12-25T18:31:33.017Z,100896.72
2022-12-25T18:34:35.849Z,100898.91
2022-12-25T18:37:40.163Z,100882.28
2022-12-25T18:40:44.555Z,100872.34
2022-12-25T18:43:54.282Z,100859.78
2022-12-25T18:46:58.152Z,100872.19
2022-12-25T18:50:04.949Z,100870.56
2022-12-25T18:53:08.044Z,100872.62
2022-12-25T18:56:14.119Z,100857.44
2022-12-25T18:59:18.139Z,100849.78
2022-12-25T19:02:21.066Z,100842.78
2022-12-25T19:05:24.291Z,100840.00
2022-12-25T19:08:27.257Z,100826.63
2022-12-25T19:11:30.197Z,100808.28
2022-12-25T19:14:48.016Z,100803.44
2022-12-25T19:17:51.287Z,100792.25
2022-12-25T19:20:54.047Z,100792.69
2022-12-25T19:23:56.887Z,100789.63
2022-12-25T19:26:59.859Z,100797.38
2022-12-25T19:30:02.798Z,100807.16
2022-12-25T19:33:08.141Z,100817.66
2022-12-25T19:36:16.488Z,100807.56
2022-12-25T19:39:20.188Z,100796.69
2022-12-25T19:42:23.927Z,100771.03
2022-12-25T19:45:26.801Z,100763.72
2022-12-25T19:48:31.106Z,100769.63
2022-12-25T19:51:37.147Z,100773.91
2022-12-25T19:54:40.097Z,100763.69
2022-12-25T19:57:43.139Z,100768.13
2022-12-25T20:00:46.063Z,100774.59
2022-12-25T20:03:49.961Z,100774.31
2022-12-25T20:06:52.883Z,100779.97
2022-12-25T20:09:55.831Z,100762.56
2022-12-25T20:12:58.728Z,100773.22
2022-12-25T20:16:02.064Z,100768.53
2022-12-25T20:19:06.507Z,100765.91
2022-12-25T20:22:09.501Z,100772.94
2022-12-25T20:25:14.337Z,100780.69
2022-12-25T20:28:17.361Z,100774.19
2022-12-25T20:31:27.945Z,100762.87
2022-12-25T20:34:30.984Z,100745.50
2022-12-25T20:37:34.092Z,100745.06
2022-12-25T20:40:53.367Z,100742.03
2022-12-25T20:44:02.098Z,100732.34
2022-12-25T20:47:05.116Z,100733.88
2022-12-25T20:50:08.468Z,100737.75
2022-12-25T20:53:11.984Z,100744.75
2022-12-25T20:56:17.172Z,100743.75
2022-12-25T20:59:20.188Z,100727.47
2022-12-25T21:02:34.709Z,100724.72
2022-12-25T21:05:50.023Z,100717.53
2022-12-25T21:08:53.587Z,100719.72
2022-12-25T21:11:56.542Z,100729.06
2022-12-25T21:14:59.848Z,100732.25
2022-12-25T21:18:04.023Z,100737.50
2022-12-25T21:21:07.910Z,100736.25
2022-12-25T21:24:11.412Z,100748.00
2022-12-25T21:27:14.270Z,100750.91
2022-12-25T21:30:17.251Z,100752.16
2022-12-25T21:33:38.521Z,100741.66
2022-12-25T21:36:41.796Z,100738.63
2022-12-25T21:39:44.688Z,100721.91
2022-12-25T21:42:47.504Z,100730.72
2022-12-25T21:45:50.435Z,100751.12
2022-12-25T21:48:53.854Z,100736.34
2022-12-25T21:52:11.298Z,100740.97
2022-12-25T21:55:14.323Z,100727.50
2022-12-25T21:58:17.147Z,100730.56
2022-12-25T22:01:20.285Z,100728.59
2022-12-25T22:04:24.059Z,100727.63
2022-12-25T22:07:26.912Z,100721.28
2022-12-25T22:10:31.385Z,100720.75
2022-12-25T22:13:52.641Z,100725.47
2022-12-25T22:17:14.008Z,100716.13
2022-12-25T22:20:31.559Z,100715.88
2022-12-25T22:23:34.459Z,100721.03
2022-12-25T22:26:37.473Z,100730.12
2022-12-25T22:29:40.871Z,100729.63
2022-12-25T22:32:44.063Z,100732.28
2022-12-25T22:35:46.981Z,100740.06
2022-12-25T22:38:49.848Z,100738.41
2022-12-25T22:41:59.032Z,100741.59
2022-12-25T22:45:03.980Z,100749.06
2022-12-25T22:48:06.857Z,100739.13
2022-12-25T22:51:09.702Z,100736.09
2022-12-25T22:54:19.959Z,100724.09
2022-12-25T22:57:23.316Z,100722.97
2022-12-25T23:00:26.335Z,100728.34
2022-12-25T23:03:29.367Z,100730.81
2022-12-25T23:06:32.450Z,100727.81
2022-12-25T23:09:35.441Z,100718.28
2022-12-25T23:12:56.703Z,100717.03
2022-12-25T23:15:59.609Z,100714.81
2022-12-25T23:19:20.840Z,100703.34
2022-12-25T23:22:42.102Z,100712.03
2022-12-25T23:26:03.410Z,100708.97
2022-12-25T23:29:25.141Z,100703.25
2022-12-25T23:32:28.418Z,100701.34
2022-12-25T23:35:31.278Z,100698.56
2022-12-25T23:38:35.907Z,100690.94
2022-12-25T23:41:46.548Z,100685.31
2022-12-25T23:44:55.182Z,100684.34
2022-12-25T23:48:00.754Z,100676.91
2022-12-25T23:51:08.830Z,100703.09
2022-12-25T23:54:14.751Z,100678.94
2022-12-25T23:57:20.458Z,100696.75
